createdAt,value
2017-08-29T00:00:01.958Z,101861.29
2017-08-29T00:02:30.431Z,101857.95
2017-08-29T00:04:58.912Z,101853.27
2017-08-29T00:07:27.360Z,101857.74
2017-08-29T00:09:55.881Z,101855.18
2017-08-29T00:12:24.338Z,101855.30
2017-08-29T00:14:52.775Z,101857.52
2017-08-29T00:17:21.330Z,101854.55
2017-08-29T00:19:49.819Z,101855.00
2017-08-29T00:22:18.280Z,101856.01
2017-08-29T00:24:46.777Z,101857.33
2017-08-29T00:27:15.252Z,101855.64
2017-08-29T00:29:43.728Z,101853.91
2017-08-29T00:32:12.194Z,101861.01
2017-08-29T00:34:40.703Z,101859.34
2017-08-29T00:37:09.192Z,101853.48
2017-08-29T00:39:37.670Z,101854.02
2017-08-29T00:42:06.142Z,101861.14
2017-08-29T00:44:34.623Z,101865.98
2017-08-29T00:47:03.104Z,101861.94
2017-08-29T00:49:31.588Z,101863.41
2017-08-29T00:52:00.077Z,101858.64
2017-08-29T00:54:28.559Z,101856.16
2017-08-29T00:56:57.047Z,101857.98
2017-08-29T00:59:25.719Z,101856.30
2017-08-29T01:01:54.209Z,101853.20
2017-08-29T01:04:22.679Z,101854.86
2017-08-29T01:06:51.112Z,101858.49
2017-08-29T01:09:19.565Z,101847.36
2017-08-29T01:11:48.040Z,101852.20
2017-08-29T01:14:16.512Z,101851.17
2017-08-29T01:16:44.992Z,101852.83
2017-08-29T01:19:13.483Z,101854.15
2017-08-29T01:21:41.956Z,101856.72
2017-08-29T01:24:10.441Z,101849.44
2017-08-29T01:26:38.877Z,101853.41
2017-08-29T01:29:07.328Z,101849.09
2017-08-29T01:31:35.775Z,101851.62
2017-08-29T01:34:04.221Z,101847.59
2017-08-29T01:36:32.745Z,101842.58
2017-08-29T01:39:01.329Z,101846.49
2017-08-29T01:41:29.822Z,101845.27
2017-08-29T01:43:58.252Z,101843.52
2017-08-29T01:46:26.787Z,101841.50
2017-08-29T01:48:55.256Z,101842.49
2017-08-29T01:51:23.749Z,101838.37
2017-08-29T01:53:52.215Z,101835.31
2017-08-29T01:56:20.675Z,101830.94
2017-08-29T01:58:49.196Z,101833.45
2017-08-29T02:01:17.668Z,101827.39
2017-08-29T02:03:46.140Z,101827.78
2017-08-29T02:06:14.619Z,101829.27
2017-08-29T02:08:43.108Z,101830.78
2017-08-29T02:11:11.596Z,101822.75
2017-08-29T02:13:40.063Z,101824.89
2017-08-29T02:16:08.512Z,101823.47
2017-08-29T02:18:36.948Z,101820.89
2017-08-29T02:21:05.399Z,101823.86
2017-08-29T02:23:33.837Z,101827.75
2017-08-29T02:26:02.286Z,101823.63
2017-08-29T02:28:30.760Z,101822.94
2017-08-29T02:30:59.334Z,101824.30
2017-08-29T02:33:27.824Z,101819.63
2017-08-29T02:35:56.318Z,101822.66
2017-08-29T02:38:24.758Z,101817.89
2017-08-29T02:40:53.202Z,101813.14
2017-08-29T02:43:21.753Z,101820.89
2017-08-29T02:45:50.245Z,101812.66
2017-08-29T02:48:18.737Z,101817.33
2017-08-29T02:50:47.200Z,101809.91
2017-08-29T02:53:15.691Z,101806.17
2017-08-29T02:55:44.169Z,101805.21
2017-08-29T02:58:12.641Z,101806.94
2017-08-29T03:00:41.063Z,101808.89
2017-08-29T03:03:09.523Z,101809.80
2017-08-29T03:05:37.951Z,101802.09
2017-08-29T03:08:06.474Z,101801.35
2017-08-29T03:10:34.962Z,101801.35
2017-08-29T03:13:03.434Z,101797.08
2017-08-29T03:15:31.859Z,101799.63
2017-08-29T03:18:00.407Z,101800.48
2017-08-29T03:20:28.856Z,101791.41
2017-08-29T03:22:57.302Z,101792.69
2017-08-29T03:25:25.844Z,101794.17
2017-08-29T03:27:54.272Z,101795.97
2017-08-29T03:30:22.799Z,101795.98
2017-08-29T03:32:51.288Z,101791.72
2017-08-29T03:35:19.776Z,101796.90
2017-08-29T03:37:48.270Z,101799.61
2017-08-29T03:40:16.815Z,101793.99
2017-08-29T03:42:45.325Z,101794.05
2017-08-29T03:45:13.791Z,101793.24
2017-08-29T03:47:42.279Z,101791.06
2017-08-29T03:50:10.758Z,101793.17
2017-08-29T03:52:39.266Z,101791.89
2017-08-29T03:55:07.746Z,101795.77
2017-08-29T03:57:36.222Z,101797.44
2017-08-29T04:00:04.692Z,101790.53
2017-08-29T04:02:33.177Z,101793.72
2017-08-29T04:05:01.629Z,101790.38
2017-08-29T04:07:30.140Z,101790.75
2017-08-29T04:09:58.624Z,101792.38
2017-08-29T04:12:27.117Z,101791.99
2017-08-29T04:14:55.587Z,101782.81
2017-08-29T04:17:24.054Z,101783.72
2017-08-29T04:19:52.539Z,101782.45
2017-08-29T04:22:21.046Z,101787.23
2017-08-29T04:24:49.521Z,101788.55
2017-08-29T04:27:17.981Z,101785.02
2017-08-29T04:29:46.407Z,101785.41
2017-08-29T04:32:14.964Z,101781.52
2017-08-29T04:34:43.452Z,101779.22
2017-08-29T04:37:11.905Z,101779.59
2017-08-29T04:39:40.420Z,101785.59
2017-08-29T04:42:08.888Z,101774.62
2017-08-29T04:44:37.334Z,101783.52
2017-08-29T04:47:05.847Z,101774.30
2017-08-29T04:49:34.327Z,101775.09
2017-08-29T04:52:02.798Z,101777.02
2017-08-29T04:54:31.306Z,101773.89
2017-08-29T04:56:59.752Z,101770.72
2017-08-29T04:59:28.255Z,101767.91
2017-08-29T05:01:56.744Z,101770.29
2017-08-29T05:04:25.173Z,101767.12
2017-08-29T05:06:53.624Z,101761.73
2017-08-29T05:09:22.070Z,101761.65
2017-08-29T05:11:50.523Z,101761.50
2017-08-29T05:14:19.048Z,101758.25
2017-08-29T05:16:47.524Z,101764.45
2017-08-29T05:19:16.012Z,101759.83
2017-08-29T05:21:44.487Z,101755.67
2017-08-29T05:24:12.979Z,101755.00
2017-08-29T05:26:41.412Z,101754.80
2017-08-29T05:29:09.868Z,101758.35
2017-08-29T05:31:38.324Z,101761.15
2017-08-29T05:34:06.792Z,101751.25
2017-08-29T05:36:35.296Z,101756.14
2017-08-29T05:39:03.761Z,101757.42
2017-08-29T05:41:32.192Z,101750.59
2017-08-29T05:44:00.722Z,101746.76
2017-08-29T05:46:29.142Z,101753.66
2017-08-29T05:48:57.701Z,101751.89
2017-08-29T05:51:26.176Z,101746.30
2017-08-29T05:53:54.636Z,101737.52
2017-08-29T05:56:23.139Z,101743.52
2017-08-29T05:58:51.620Z,101742.60
2017-08-29T06:01:20.145Z,101740.44
2017-08-29T06:03:48.662Z,101745.09
2017-08-29T06:06:17.179Z,101738.04
2017-08-29T06:08:45.656Z,101738.91
2017-08-29T06:11:14.101Z,101734.16
2017-08-29T06:13:42.626Z,101735.47
2017-08-29T06:16:11.051Z,101730.33
2017-08-29T06:18:39.496Z,101726.05
2017-08-29T06:21:07.919Z,101710.04
2017-08-29T06:23:36.366Z,101708.75
2017-08-29T06:26:04.831Z,101703.86
2017-08-29T06:28:33.361Z,101699.62
2017-08-29T06:31:01.812Z,101699.13
2017-08-29T06:33:30.230Z,101695.67
2017-08-29T06:35:58.676Z,101703.89
2017-08-29T06:38:27.128Z,101702.42
2017-08-29T06:40:55.607Z,101697.27
2017-08-29T06:43:24.048Z,101692.63
2017-08-29T06:45:52.576Z,101701.37
2017-08-29T06:48:21.055Z,101695.97
2017-08-29T06:50:49.547Z,101695.98
2017-08-29T06:53:18.019Z,101692.83
2017-08-29T06:55:46.485Z,101687.92
2017-08-29T06:58:14.920Z,101690.00
2017-08-29T07:00:43.349Z,101684.83
2017-08-29T07:03:11.859Z,101685.66
2017-08-29T07:05:40.339Z,101682.52
2017-08-29T07:08:08.844Z,101682.73
2017-08-29T07:10:37.391Z,101685.17
2017-08-29T07:13:05.819Z,101682.59
2017-08-29T07:15:34.286Z,101681.14
2017-08-29T07:18:02.721Z,101683.13
2017-08-29T07:20:31.214Z,101674.90
2017-08-29T07:22:59.654Z,101670.45
2017-08-29T07:25:28.113Z,101667.63
2017-08-29T07:27:56.681Z,101664.52
2017-08-29T07:30:25.132Z,101667.79
2017-08-29T07:32:53.619Z,101671.28
2017-08-29T07:35:22.078Z,101669.23
2017-08-29T07:37:51.319Z,101669.17
2017-08-29T07:40:19.772Z,101667.67
2017-08-29T07:42:48.272Z,101670.33
2017-08-29T07:45:16.855Z,101669.23
2017-08-29T07:47:45.294Z,101667.77
2017-08-29T07:50:13.745Z,101659.19
2017-08-29T07:52:42.315Z,101659.42
2017-08-29T07:55:10.739Z,101661.33
2017-08-29T07:57:39.189Z,101660.34
2017-08-29T08:00:07.642Z,101658.64
2017-08-29T08:02:36.336Z,101652.82
2017-08-29T08:05:04.826Z,101650.95
2017-08-29T08:07:33.300Z,101648.72
2017-08-29T08:10:01.720Z,101646.83
2017-08-29T08:12:30.250Z,101644.17
2017-08-29T08:14:58.680Z,101644.88
2017-08-29T08:17:27.231Z,101640.77
2017-08-29T08:19:55.654Z,101641.21
2017-08-29T08:22:24.108Z,101641.34
2017-08-29T08:24:52.573Z,101641.49
2017-08-29T08:27:21.033Z,101636.40
2017-08-29T08:29:49.464Z,101633.23
2017-08-29T08:32:18.021Z,101636.55
2017-08-29T08:34:46.440Z,101635.95
2017-08-29T08:37:14.901Z,101635.89
2017-08-29T08:39:43.361Z,101632.70
2017-08-29T08:42:11.840Z,101628.34
2017-08-29T08:44:40.320Z,101628.85
2017-08-29T08:47:08.804Z,101619.72
2017-08-29T08:49:37.283Z,101621.55
2017-08-29T08:52:05.778Z,101622.20
2017-08-29T08:54:34.223Z,101623.01
2017-08-29T08:57:03.437Z,101620.41
2017-08-29T08:59:31.927Z,101618.06
2017-08-29T09:02:00.422Z,101617.24
2017-08-29T09:04:28.852Z,101610.68
2017-08-29T09:06:57.367Z,101611.23
2017-08-29T09:09:25.811Z,101610.72
2017-08-29T09:11:54.240Z,101614.27
2017-08-29T09:14:22.730Z,101614.56
2017-08-29T09:16:51.160Z,101603.79
2017-08-29T09:19:19.675Z,101604.00
2017-08-29T09:21:48.108Z,101602.20
2017-08-29T09:24:16.556Z,101599.00
2017-08-29T09:26:45.018Z,101592.37
2017-08-29T09:29:13.519Z,101590.80
2017-08-29T09:31:42.003Z,101589.58
2017-08-29T09:34:10.475Z,101582.23
2017-08-29T09:36:38.951Z,101584.98
2017-08-29T09:39:07.431Z,101582.86
2017-08-29T09:41:35.910Z,101586.56
2017-08-29T09:44:04.413Z,101572.00
2017-08-29T09:46:32.858Z,101570.48
2017-08-29T09:49:01.378Z,101570.48
2017-08-29T09:51:29.848Z,101568.14
2017-08-29T09:53:58.296Z,101570.30
2017-08-29T09:56:26.807Z,101564.98
2017-08-29T09:58:55.252Z,101562.84
2017-08-29T10:01:23.773Z,101561.73
2017-08-29T10:03:52.253Z,101559.58
2017-08-29T10:06:20.689Z,101557.98
2017-08-29T10:08:49.123Z,101554.13
2017-08-29T10:11:17.581Z,101560.52
2017-08-29T10:13:46.090Z,101547.91
2017-08-29T10:16:14.564Z,101548.61
2017-08-29T10:18:43.054Z,101549.69
2017-08-29T10:21:11.538Z,101549.00
2017-08-29T10:23:40.008Z,101543.34
2017-08-29T10:26:08.487Z,101535.84
2017-08-29T10:28:36.908Z,101538.03
2017-08-29T10:31:05.460Z,101532.28
2017-08-29T10:33:33.947Z,101534.70
2017-08-29T10:36:02.429Z,101527.97
2017-08-29T10:38:30.857Z,101532.37
2017-08-29T10:40:59.391Z,101524.87
2017-08-29T10:43:27.864Z,101525.61
2017-08-29T10:45:56.312Z,101526.78
2017-08-29T10:48:24.748Z,101521.39
2017-08-29T10:50:53.198Z,101527.64
2017-08-29T10:53:21.682Z,101528.81
2017-08-29T10:55:50.125Z,101522.09
2017-08-29T10:58:18.655Z,101521.73
2017-08-29T11:00:47.115Z,101520.42
2017-08-29T11:03:15.558Z,101519.39
2017-08-29T11:05:44.104Z,101522.85
2017-08-29T11:08:12.583Z,101517.98
2017-08-29T11:10:41.073Z,101523.15
2017-08-29T11:13:09.554Z,101524.73
2017-08-29T11:15:38.027Z,101522.42
2017-08-29T11:18:06.481Z,101520.30
2017-08-29T11:20:34.988Z,101516.48
2017-08-29T11:23:03.440Z,101519.38
2017-08-29T11:25:31.868Z,101511.67
2017-08-29T11:28:00.315Z,101515.73
2017-08-29T11:30:28.740Z,101517.72
2017-08-29T11:32:57.183Z,101507.84
2017-08-29T11:35:25.622Z,101509.37
2017-08-29T11:37:54.077Z,101505.06
2017-08-29T11:40:22.513Z,101511.67
2017-08-29T11:42:50.961Z,101506.67
2017-08-29T11:45:19.393Z,101503.31
2017-08-29T11:47:47.856Z,101497.41
2017-08-29T11:50:16.294Z,101496.32
2017-08-29T11:52:44.754Z,101492.91
2017-08-29T11:55:13.199Z,101485.98
2017-08-29T11:57:41.657Z,101477.20
2017-08-29T12:00:10.076Z,101475.22
2017-08-29T12:02:38.520Z,101476.73
2017-08-29T12:05:06.959Z,101469.50
2017-08-29T12:07:35.413Z,101471.36
2017-08-29T12:10:03.849Z,101464.63
2017-08-29T12:12:32.267Z,101471.23
2017-08-29T12:15:00.767Z,101464.36
2017-08-29T12:17:29.190Z,101452.73
2017-08-29T12:19:57.652Z,101454.67
2017-08-29T12:22:26.101Z,101448.45
2017-08-29T12:24:54.545Z,101447.91
2017-08-29T12:27:23.090Z,101447.17
2017-08-29T12:29:51.574Z,101448.12
2017-08-29T12:32:20.055Z,101439.63
2017-08-29T12:34:48.515Z,101441.72
2017-08-29T12:37:16.962Z,101441.38
2017-08-29T12:39:45.492Z,101442.31
2017-08-29T12:42:13.987Z,101430.34
2017-08-29T12:44:42.445Z,101428.06
2017-08-29T12:47:10.885Z,101427.77
2017-08-29T12:49:39.338Z,101417.77
2017-08-29T12:52:07.805Z,101423.15
2017-08-29T12:54:36.275Z,101417.10
2017-08-29T12:57:04.770Z,101410.27
2017-08-29T12:59:33.222Z,101402.51
2017-08-29T13:02:01.660Z,101403.23
2017-08-29T13:04:30.103Z,101399.23
2017-08-29T13:06:58.593Z,101397.46
2017-08-29T13:09:27.072Z,101398.16
2017-08-29T13:11:55.504Z,101391.83
2017-08-29T13:14:24.042Z,101393.66
2017-08-29T13:16:52.486Z,101387.48
2017-08-29T13:19:21.117Z,101393.03
2017-08-29T13:21:49.536Z,101387.59
2017-08-29T13:24:18.080Z,101391.42
2017-08-29T13:26:46.521Z,101381.90
2017-08-29T13:29:15.028Z,101377.89
2017-08-29T13:31:43.507Z,101379.39
2017-08-29T13:34:11.944Z,101376.58
2017-08-29T13:36:40.392Z,101373.16
2017-08-29T13:39:08.838Z,101358.92
2017-08-29T13:41:37.327Z,101369.91
2017-08-29T13:44:05.821Z,101358.73
2017-08-29T13:46:34.281Z,101362.91
2017-08-29T13:49:02.790Z,101363.08
2017-08-29T13:51:31.235Z,101362.19
2017-08-29T13:53:59.674Z,101355.85
2017-08-29T13:56:28.233Z,101354.20
2017-08-29T13:58:56.660Z,101358.95
2017-08-29T14:01:25.192Z,101358.53
2017-08-29T14:03:53.672Z,101357.75
2017-08-29T14:06:22.165Z,101359.27
2017-08-29T14:08:50.631Z,101353.06
2017-08-29T14:11:19.120Z,101348.70
2017-08-29T14:13:47.568Z,101339.50
2017-08-29T14:16:16.085Z,101347.84
2017-08-29T14:18:44.565Z,101344.41
2017-08-29T14:21:13.009Z,101337.66
2017-08-29T14:23:41.537Z,101334.95
2017-08-29T14:26:10.002Z,101329.66
2017-08-29T14:28:38.491Z,101324.83
2017-08-29T14:31:06.933Z,101315.60
2017-08-29T14:33:35.386Z,101312.69
2017-08-29T14:36:03.826Z,101312.42
2017-08-29T14:38:32.285Z,101317.09
2017-08-29T14:41:00.804Z,101316.59
2017-08-29T14:43:29.265Z,101318.27
2017-08-29T14:45:57.705Z,101317.46
2017-08-29T14:48:44.059Z,101310.19
2017-08-29T14:51:12.493Z,101304.98
2017-08-29T14:53:40.944Z,101305.63
2017-08-29T14:56:09.409Z,101306.06
2017-08-29T14:58:37.857Z,101304.40
2017-08-29T15:01:06.368Z,101297.45
2017-08-29T15:03:34.852Z,101298.31
2017-08-29T15:06:03.286Z,101295.02
2017-08-29T15:08:31.817Z,101301.22
2017-08-29T15:11:00.295Z,101299.22
2017-08-29T15:13:28.724Z,101294.71
2017-08-29T15:15:57.270Z,101292.67
2017-08-29T15:18:25.758Z,101294.61
2017-08-29T15:20:54.203Z,101283.78
2017-08-29T15:23:22.709Z,101292.16
2017-08-29T15:25:51.169Z,101282.51
2017-08-29T15:28:19.663Z,101278.68
2017-08-29T15:30:48.107Z,101270.62
2017-08-29T15:33:16.650Z,101279.73
2017-08-29T15:35:45.095Z,101273.66
2017-08-29T15:38:13.523Z,101276.88
2017-08-29T15:40:42.071Z,101271.47
2017-08-29T15:43:10.490Z,101267.75
2017-08-29T15:45:39.053Z,101273.17
2017-08-29T15:48:07.540Z,101266.44
2017-08-29T15:50:36.001Z,101266.22
2017-08-29T15:53:04.499Z,101267.66
2017-08-29T15:55:32.931Z,101258.48
2017-08-29T15:58:01.472Z,101266.77
2017-08-29T16:00:29.894Z,101269.98
2017-08-29T16:02:58.410Z,101268.86
2017-08-29T16:05:26.901Z,101263.57
2017-08-29T16:07:55.349Z,101265.76
2017-08-29T16:10:23.860Z,101269.45
2017-08-29T16:12:52.334Z,101268.54
2017-08-29T16:15:20.833Z,101266.53
2017-08-29T16:17:49.289Z,101271.39
2017-08-29T16:20:17.724Z,101270.94
2017-08-29T16:22:46.269Z,101264.14
2017-08-29T16:25:14.768Z,101260.69
2017-08-29T16:27:43.253Z,101263.08
2017-08-29T16:30:11.693Z,101264.56
2017-08-29T16:32:40.205Z,101267.15
2017-08-29T16:35:08.639Z,101270.11
2017-08-29T16:37:37.095Z,101268.36
2017-08-29T16:40:05.554Z,101272.50
2017-08-29T16:42:34.027Z,101262.61
2017-08-29T16:45:02.448Z,101260.35
2017-08-29T16:47:30.886Z,101256.45
2017-08-29T16:49:59.372Z,101255.44
2017-08-29T16:52:27.856Z,101259.03
2017-08-29T16:54:56.286Z,101261.25
2017-08-29T16:57:24.835Z,101258.20
2017-08-29T16:59:53.289Z,101256.39
2017-08-29T17:02:21.787Z,101249.09
2017-08-29T17:04:50.229Z,101248.43
2017-08-29T17:07:18.736Z,101239.68
2017-08-29T17:09:47.201Z,101236.45
2017-08-29T17:12:15.716Z,101230.88
2017-08-29T17:14:44.168Z,101236.07
2017-08-29T17:17:12.613Z,101234.04
2017-08-29T17:19:41.163Z,101239.61
2017-08-29T17:22:09.596Z,101239.66
2017-08-29T17:24:38.060Z,101239.06
2017-08-29T17:27:08.136Z,101242.88
2017-08-29T17:29:36.617Z,101247.75
2017-08-29T17:32:05.095Z,101244.73
2017-08-29T17:34:33.580Z,101250.91
2017-08-29T17:37:02.060Z,101250.36
2017-08-29T17:39:30.699Z,101250.73
2017-08-29T17:41:59.125Z,101248.22
2017-08-29T17:44:27.592Z,101247.80
2017-08-29T17:46:56.015Z,101245.27
2017-08-29T17:49:24.567Z,101249.70
2017-08-29T17:51:53.060Z,101247.63
2017-08-29T17:54:21.530Z,101248.94
2017-08-29T17:56:50.016Z,101260.20
2017-08-29T17:59:18.608Z,101263.31
2017-08-29T18:01:47.084Z,101265.88
2017-08-29T18:04:15.568Z,101268.72
2017-08-29T18:06:44.025Z,101266.33
2017-08-29T18:09:12.539Z,101267.75
2017-08-29T18:11:41.001Z,101273.59
2017-08-29T18:14:09.502Z,101273.38
2017-08-29T18:16:37.976Z,101273.84
2017-08-29T18:19:06.466Z,101276.23
2017-08-29T18:21:34.933Z,101278.25
2017-08-29T18:24:03.425Z,101273.08
2017-08-29T18:26:31.893Z,101276.78
2017-08-29T18:29:00.383Z,101279.89
2017-08-29T18:31:28.867Z,101273.09
2017-08-29T18:33:57.362Z,101280.78
2017-08-29T18:36:25.834Z,101272.73
2017-08-29T18:38:54.267Z,101278.09
2017-08-29T18:41:22.742Z,101272.09
2017-08-29T18:43:51.172Z,101282.62
2017-08-29T18:46:19.629Z,101284.47
2017-08-29T18:48:48.147Z,101281.67
2017-08-29T18:51:16.731Z,101274.30
2017-08-29T18:53:45.163Z,101275.03
2017-08-29T18:56:13.688Z,101270.64
2017-08-29T18:58:42.145Z,101275.19
2017-08-29T19:01:10.594Z,101270.25
2017-08-29T19:03:39.066Z,101276.25
2017-08-29T19:06:07.613Z,101278.00
2017-08-29T19:08:36.055Z,101274.87
2017-08-29T19:11:04.505Z,101275.34
2017-08-29T19:13:32.947Z,101276.85
2017-08-29T19:16:01.449Z,101277.13
2017-08-29T19:18:29.890Z,101273.41
2017-08-29T19:20:58.341Z,101271.80
2017-08-29T19:23:26.803Z,101267.05
2017-08-29T19:25:55.232Z,101272.98
2017-08-29T19:28:23.754Z,101266.48
2017-08-29T19:30:52.222Z,101267.91
2017-08-29T19:33:20.662Z,101261.59
2017-08-29T19:35:49.188Z,101262.72
2017-08-29T19:38:17.687Z,101265.16
2017-08-29T19:40:46.167Z,101269.22
2017-08-29T19:43:14.657Z,101269.16
2017-08-29T19:45:43.097Z,101262.00
2017-08-29T19:48:11.561Z,101262.22
2017-08-29T19:50:40.086Z,101264.52
2017-08-29T19:53:08.655Z,101261.92
2017-08-29T19:55:37.155Z,101260.77
2017-08-29T19:58:05.641Z,101258.47
2017-08-29T20:00:34.100Z,101257.07
2017-08-29T20:03:02.596Z,101256.33
2017-08-29T20:05:31.067Z,101256.47
2017-08-29T20:07:59.551Z,101254.61
2017-08-29T20:10:28.156Z,101257.33
2017-08-29T20:12:56.596Z,101257.14
2017-08-29T20:15:25.104Z,101255.53
2017-08-29T20:17:53.602Z,101253.64
2017-08-29T20:20:22.056Z,101253.47
2017-08-29T20:22:50.487Z,101254.09
2017-08-29T20:25:18.935Z,101251.34
2017-08-29T20:27:47.420Z,101248.26
2017-08-29T20:30:15.904Z,101242.73
2017-08-29T20:32:44.376Z,101240.70
2017-08-29T20:35:12.959Z,101243.23
2017-08-29T20:37:41.397Z,101242.22
2017-08-29T20:40:09.835Z,101238.29
2017-08-29T20:42:38.305Z,101228.77
2017-08-29T20:45:06.749Z,101230.15
2017-08-29T20:47:35.262Z,101234.17
2017-08-29T20:50:03.752Z,101224.33
2017-08-29T20:52:32.232Z,101232.73
2017-08-29T20:55:00.723Z,101222.13
2017-08-29T20:57:29.184Z,101219.64
2017-08-29T20:59:57.680Z,101223.97
2017-08-29T21:02:26.155Z,101223.57
2017-08-29T21:04:54.644Z,101225.30
2017-08-29T21:07:23.109Z,101223.56
2017-08-29T21:09:51.557Z,101217.94
2017-08-29T21:12:20.078Z,101219.31
2017-08-29T21:14:48.568Z,101212.17
2017-08-29T21:17:17.052Z,101212.79
2017-08-29T21:19:45.547Z,101209.42
2017-08-29T21:22:14.016Z,101211.19
2017-08-29T21:24:42.500Z,101215.94
2017-08-29T21:27:10.952Z,101214.89
2017-08-29T21:29:39.464Z,101218.68
2017-08-29T21:32:07.939Z,101212.98
2017-08-29T21:34:36.364Z,101203.47
2017-08-29T21:37:04.921Z,101205.76
2017-08-29T21:39:33.383Z,101211.32
2017-08-29T21:42:01.823Z,101207.42
2017-08-29T21:44:30.298Z,101204.22
2017-08-29T21:46:58.841Z,101201.20
2017-08-29T21:49:27.313Z,101199.40
2017-08-29T21:51:55.749Z,101199.35
2017-08-29T21:54:24.220Z,101205.04
2017-08-29T21:56:52.755Z,101195.98
2017-08-29T21:59:21.222Z,101206.02
2017-08-29T22:01:49.661Z,101206.90
2017-08-29T22:04:18.107Z,101205.98
2017-08-29T22:06:46.600Z,101211.53
2017-08-29T22:09:15.064Z,101207.52
2017-08-29T22:11:43.486Z,101206.94
2017-08-29T22:14:11.946Z,101202.59
2017-08-29T22:16:40.377Z,101212.66
2017-08-29T22:19:08.892Z,101203.36
2017-08-29T22:21:37.376Z,101213.61
2017-08-29T22:24:05.858Z,101208.11
2017-08-29T22:26:34.336Z,101206.95
2017-08-29T22:29:02.773Z,101203.64
2017-08-29T22:31:31.299Z,101203.31
2017-08-29T22:33:59.779Z,101202.09
2017-08-29T22:36:28.221Z,101201.25
2017-08-29T22:38:56.748Z,101199.55
2017-08-29T22:41:25.228Z,101197.33
2017-08-29T22:43:53.722Z,101197.84
2017-08-29T22:46:22.159Z,101195.59
2017-08-29T22:48:50.612Z,101197.84
2017-08-29T22:51:19.157Z,101194.98
2017-08-29T22:53:47.649Z,101199.39
2017-08-29T22:56:16.120Z,101199.91
2017-08-29T22:58:44.576Z,101199.37
2017-08-29T23:01:12.999Z,101194.45
2017-08-29T23:03:41.472Z,101197.16
2017-08-29T23:06:09.961Z,101202.53
2017-08-29T23:08:38.428Z,101195.31
2017-08-29T23:11:06.894Z,101193.03
2017-08-29T23:13:35.392Z,101201.27
2017-08-29T23:16:03.853Z,101199.90
2017-08-29T23:18:32.366Z,101200.33
2017-08-29T23:21:00.827Z,101207.64
2017-08-29T23:23:29.265Z,101201.69
2017-08-29T23:25:57.720Z,101197.59
2017-08-29T23:28:26.156Z,101202.81
2017-08-29T23:30:54.629Z,101201.96
2017-08-29T23:33:23.864Z,101204.75
2017-08-29T23:35:52.354Z,101206.39
2017-08-29T23:38:20.778Z,101208.27
2017-08-29T23:40:49.237Z,101204.64
2017-08-29T23:43:17.700Z,101201.72
2017-08-29T23:45:46.182Z,101202.70
2017-08-29T23:48:14.647Z,101191.75
2017-08-29T23:50:43.137Z,101197.83
2017-08-29T23:53:11.582Z,101191.81
2017-08-29T23:55:40.109Z,101187.64
2017-08-29T23:58:08.580Z,101180.55
